1705 days total. Displaying Days 241 through 270    Note: Data are provisional, have not been reviewed, and are subject to revision. Highlighted rows indicate that records have been updated within day. Click to expand row for more information.
Day Update(s) Type Air Temp
Mean ℃
Wind Speed
Mean m/s
Relative Humidity
min, max %
Precipitation
Total mm
Air Pressure
Mean kPa
PAR
Total mol m-2
2019-10-10 (96)  0 C 12.61 2.61 85.89 , 99.95 9.14 97.95 5.19
2019-10-09 (96)  0 C 15.77 2.64 36.18 , 79.62 0 98.26 30.32
2019-10-08 (96)  0 C 14.68 2.54 30.41 , 93.18 0 98.44 33.74
2019-10-07 (96)  0 C 11.25 1.42 33.37 , 99.92 0 98.87 35.83
2019-10-06 (96)  0 C 12.52 2.67 42.2 , 91.78 0 98.37 33.93
2019-10-05 (96)  0 C 10.02 3.45 75.78 , 99.95 28.7 98.04 4.49
2019-10-04 (96)  0 C 7.5 1.59 68.42 , 94.41 0 99.71 12.21
2019-10-03 (96)  0 C 8.17 2.57 70.61 , 99.93 1.02 99.13 15.81
2019-10-02 (96)  0 C 9.31 1.71 82.53 , 99.93 14.48 98.6 6.98
2019-10-01 (96)  0 C 12.13 2.03 93.74 , 99.96 11.43 98.43 5.11
2019-09-30 (96)  0 C 23.21 2.34 61.61 , 99.97 0.25 97.74 14.59
2019-09-29 (96)  0 C 12.14 2.85 76.41 , 99.96 6.6 98.79 6.07
2019-09-28 (96)  0 C 12.21 1.33 42.58 , 99.76 0 99.02 38.64
2019-09-27 (96)  0 C 15.91 1.67 58.08 , 93.76 0 97.53 26.63
2019-09-26 (96)  0 C 13.49 1.5 40.97 , 99.91 0 97.95 36.67
2019-09-25 (96)  0 C 15.89 2.51 39.04 , 99.95 0 97.66 40.48
2019-09-24 (96)  0 C 18.26 1.53 57.53 , 99.96 8.38 97.48 37.79
2019-09-23 (96)  0 C 15.03 1.34 40.64 , 99.94 0 98.38 42.52
2019-09-22 (96)  0 C 15.63 1.18 61.85 , 99.95 0 98.07 15.29
2019-09-21 (96)  0 C 23.35 2.57 73.03 , 99.97 2.54 97.86 15.73
2019-09-20 (96)  0 C 22.51 1.86 66.2 , 99.97 0 98.51 34.24
2019-09-19 (96)  0 C 20.72 0.69 56.49 , 99.97 0 98.47 35.81
2019-09-18 (96)  0 C 22.34 2.78 66.33 , 99.97 5.59 98.2 23.17
2019-09-17 (96)  0 C 24.51 2.69 58.32 , 91.7 0 98.39 30.76
2019-09-16 (96)  0 C 21.54 1.89 51.01 , 99.96 0 98.57 37.01
2019-09-15 (96)  0 C 19.38 0.62 50.89 , 99.96 0 98.45 36.39
2019-09-14 (96)  0 C 16.11 1.2 62.93 , 99.96 0 98.62 29.06
2019-09-13 (96)  0 C 14.13 2.95 72.02 , 99.96 0.25 98.39 21.37
2019-09-12 (96)  0 C 16.48 2.71 95.31 , 99.96 31.24 98.27 5.24
2019-09-11 (96)  0 C 17.39 1.54 93.42 , 99.96 17.27 98.61 9.47